sensor_id;sensor_type;location;lat;lon;timestamp;P1;durP1;ratioP1;P2;durP2;ratioP2
30000;SDS011;16845;48.670;9.000;2024-02-26T00:00:33;2.40;;;1.83;;
30000;SDS011;16845;48.670;9.000;2024-02-26T00:02:59;2.00;;;1.40;;
30000;SDS011;16845;48.670;9.000;2024-02-26T00:05:26;1.65;;;1.33;;
30000;SDS011;16845;48.670;9.000;2024-02-26T00:07:53;2.17;;;1.88;;
30000;SDS011;16845;48.670;9.000;2024-02-26T00:10:20;3.90;;;1.85;;
30000;SDS011;16845;48.670;9.000;2024-02-26T00:12:47;2.55;;;1.80;;
30000;SDS011;16845;48.670;9.000;2024-02-26T00:15:14;4.70;;;1.85;;
30000;SDS011;16845;48.670;9.000;2024-02-26T00:17:42;4.37;;;1.60;;
30000;SDS011;16845;48.670;9.000;2024-02-26T00:20:10;3.22;;;1.50;;
30000;SDS011;16845;48.670;9.000;2024-02-26T00:22:37;2.40;;;1.40;;
30000;SDS011;16845;48.670;9.000;2024-02-26T00:25:04;2.20;;;1.45;;
30000;SDS011;16845;48.670;9.000;2024-02-26T00:29:57;1.48;;;1.05;;
30000;SDS011;16845;48.670;9.000;2024-02-26T00:32:24;2.03;;;1.53;;
30000;SDS011;16845;48.670;9.000;2024-02-26T00:34:52;2.43;;;1.50;;
30000;SDS011;16845;48.670;9.000;2024-02-26T00:37:18;1.55;;;1.27;;
30000;SDS011;16845;48.670;9.000;2024-02-26T00:39:45;2.00;;;1.50;;
30000;SDS011;16845;48.670;9.000;2024-02-26T00:42:11;1.13;;;0.98;;
30000;SDS011;16845;48.670;9.000;2024-02-26T00:44:38;1.58;;;1.48;;
30000;SDS011;16845;48.670;9.000;2024-02-26T00:47:05;2.40;;;1.27;;
30000;SDS011;16845;48.670;9.000;2024-02-26T00:49:31;2.50;;;1.40;;
30000;SDS011;16845;48.670;9.000;2024-02-26T00:51:59;3.50;;;1.73;;
30000;SDS011;16845;48.670;9.000;2024-02-26T00:54:26;2.17;;;1.30;;
30000;SDS011;16845;48.670;9.000;2024-02-26T00:56:52;1.40;;;1.30;;
30000;SDS011;16845;48.670;9.000;2024-02-26T00:59:19;1.63;;;1.27;;
30000;SDS011;16845;48.670;9.000;2024-02-26T01:01:45;1.87;;;1.50;;
30000;SDS011;16845;48.670;9.000;2024-02-26T01:04:12;1.42;;;1.00;;
30000;SDS011;16845;48.670;9.000;2024-02-26T01:06:38;2.95;;;1.50;;
30000;SDS011;16845;48.670;9.000;2024-02-26T01:09:07;1.95;;;1.40;;
30000;SDS011;16845;48.670;9.000;2024-02-26T01:11:33;4.22;;;1.90;;
30000;SDS011;16845;48.670;9.000;2024-02-26T01:14:00;4.73;;;1.80;;
30000;SDS011;16845;48.670;9.000;2024-02-26T01:16:27;1.55;;;1.40;;
30000;SDS011;16845;48.670;9.000;2024-02-26T01:18:53;1.50;;;1.30;;
30000;SDS011;16845;48.670;9.000;2024-02-26T01:21:20;1.85;;;1.38;;
30000;SDS011;16845;48.670;9.000;2024-02-26T01:23:46;1.88;;;1.40;;
30000;SDS011;16845;48.670;9.000;2024-02-26T01:26:14;3.27;;;1.13;;
30000;SDS011;16845;48.670;9.000;2024-02-26T01:28:41;2.05;;;1.20;;
30000;SDS011;16845;48.670;9.000;2024-02-26T01:31:09;1.17;;;1.08;;
30000;SDS011;16845;48.670;9.000;2024-02-26T01:33:36;5.18;;;1.30;;
30000;SDS011;16845;48.670;9.000;2024-02-26T01:36:03;1.40;;;1.05;;
30000;SDS011;16845;48.670;9.000;2024-02-26T01:38:30;1.67;;;1.20;;
30000;SDS011;16845;48.670;9.000;2024-02-26T01:40:57;2.17;;;1.30;;
30000;SDS011;16845;48.670;9.000;2024-02-26T01:43:24;2.17;;;1.37;;
30000;SDS011;16845;48.670;9.000;2024-02-26T01:45:51;1.85;;;1.15;;
30000;SDS011;16845;48.670;9.000;2024-02-26T01:48:17;2.33;;;0.98;;
30000;SDS011;16845;48.670;9.000;2024-02-26T01:50:44;2.58;;;1.20;;
30000;SDS011;16845;48.670;9.000;2024-02-26T01:53:11;2.97;;;1.60;;
30000;SDS011;16845;48.670;9.000;2024-02-26T01:55:38;1.88;;;1.35;;
30000;SDS011;16845;48.670;9.000;2024-02-26T01:58:05;1.63;;;1.38;;
30000;SDS011;16845;48.670;9.000;2024-02-26T02:00:33;1.90;;;1.80;;
30000;SDS011;16845;48.670;9.000;2024-02-26T02:03:00;2.42;;;1.30;;
30000;SDS011;16845;48.670;9.000;2024-02-26T02:05:27;1.58;;;1.48;;
30000;SDS011;16845;48.670;9.000;2024-02-26T02:07:54;1.33;;;1.23;;
30000;SDS011;16845;48.670;9.000;2024-02-26T02:10:21;2.80;;;1.50;;
30000;SDS011;16845;48.670;9.000;2024-02-26T02:12:48;1.92;;;1.45;;
30000;SDS011;16845;48.670;9.000;2024-02-26T02:15:15;3.10;;;2.00;;
30000;SDS011;16845;48.670;9.000;2024-02-26T02:17:43;1.40;;;1.30;;
30000;SDS011;16845;48.670;9.000;2024-02-26T02:20:10;1.75;;;1.15;;
30000;SDS011;16845;48.670;9.000;2024-02-26T02:22:43;0.52;;;0.50;;
30000;SDS011;16845;48.670;9.000;2024-02-26T02:25:09;1.15;;;0.70;;
30000;SDS011;16845;48.670;9.000;2024-02-26T02:27:36;2.05;;;0.75;;
30000;SDS011;16845;48.670;9.000;2024-02-26T02:30:03;0.70;;;0.70;;
30000;SDS011;16845;48.670;9.000;2024-02-26T02:32:31;0.75;;;0.70;;
30000;SDS011;16845;48.670;9.000;2024-02-26T02:34:59;0.68;;;0.68;;
30000;SDS011;16845;48.670;9.000;2024-02-26T02:37:25;1.48;;;1.02;;
30000;SDS011;16845;48.670;9.000;2024-02-26T02:39:53;3.60;;;1.20;;
30000;SDS011;16845;48.670;9.000;2024-02-26T02:42:20;1.10;;;1.00;;
30000;SDS011;16845;48.670;9.000;2024-02-26T02:44:46;1.13;;;1.00;;
30000;SDS011;16845;48.670;9.000;2024-02-26T02:47:13;1.35;;;1.10;;
30000;SDS011;16845;48.670;9.000;2024-02-26T02:49:39;2.17;;;1.20;;
30000;SDS011;16845;48.670;9.000;2024-02-26T02:52:06;1.30;;;1.20;;
30000;SDS011;16845;48.670;9.000;2024-02-26T02:54:32;1.20;;;0.93;;
30000;SDS011;16845;48.670;9.000;2024-02-26T02:57:00;2.70;;;1.15;;
30000;SDS011;16845;48.670;9.000;2024-02-26T02:59:27;3.20;;;1.00;;
30000;SDS011;16845;48.670;9.000;2024-02-26T03:01:54;1.10;;;0.60;;
30000;SDS011;16845;48.670;9.000;2024-02-26T03:04:20;0.65;;;0.60;;
30000;SDS011;16845;48.670;9.000;2024-02-26T03:06:47;1.83;;;1.07;;
30000;SDS011;16845;48.670;9.000;2024-02-26T03:09:13;1.80;;;1.08;;
30000;SDS011;16845;48.670;9.000;2024-02-26T03:11:40;1.20;;;0.87;;
30000;SDS011;16845;48.670;9.000;2024-02-26T03:14:08;1.17;;;0.77;;
30000;SDS011;16845;48.670;9.000;2024-02-26T03:16:35;0.90;;;0.70;;
30000;SDS011;16845;48.670;9.000;2024-02-26T03:19:01;0.90;;;0.90;;
30000;SDS011;16845;48.670;9.000;2024-02-26T03:21:28;1.05;;;0.93;;
30000;SDS011;16845;48.670;9.000;2024-02-26T03:23:55;0.90;;;0.90;;
30000;SDS011;16845;48.670;9.000;2024-02-26T03:26:21;2.05;;;0.80;;
30000;SDS011;16845;48.670;9.000;2024-02-26T03:28:48;2.38;;;1.10;;
30000;SDS011;16845;48.670;9.000;2024-02-26T03:31:16;1.30;;;0.90;;
30000;SDS011;16845;48.670;9.000;2024-02-26T03:33:42;0.80;;;0.80;;
30000;SDS011;16845;48.670;9.000;2024-02-26T03:36:09;1.13;;;1.00;;
30000;SDS011;16845;48.670;9.000;2024-02-26T03:38:36;0.93;;;0.90;;
30000;SDS011;16845;48.670;9.000;2024-02-26T03:41:03;1.73;;;0.80;;
30000;SDS011;16845;48.670;9.000;2024-02-26T03:43:30;1.88;;;0.90;;
30000;SDS011;16845;48.670;9.000;2024-02-26T03:45:56;2.13;;;0.88;;
30000;SDS011;16845;48.670;9.000;2024-02-26T03:48:24;0.95;;;0.90;;
30000;SDS011;16845;48.670;9.000;2024-02-26T03:50:51;1.90;;;1.15;;
30000;SDS011;16845;48.670;9.000;2024-02-26T03:53:17;1.25;;;1.15;;
30000;SDS011;16845;48.670;9.000;2024-02-26T03:55:44;1.10;;;1.00;;
30000;SDS011;16845;48.670;9.000;2024-02-26T03:58:12;1.63;;;0.90;;
30000;SDS011;16845;48.670;9.000;2024-02-26T04:00:38;2.35;;;0.88;;
30000;SDS011;16845;48.670;9.000;2024-02-26T04:03:05;1.38;;;1.00;;
30000;SDS011;16845;48.670;9.000;2024-02-26T04:05:33;3.13;;;1.00;;
30000;SDS011;16845;48.670;9.000;2024-02-26T04:08:00;1.02;;;0.80;;
30000;SDS011;16845;48.670;9.000;2024-02-26T04:10:27;1.60;;;1.08;;
30000;SDS011;16845;48.670;9.000;2024-02-26T04:12:53;1.60;;;0.93;;
30000;SDS011;16845;48.670;9.000;2024-02-26T04:15:20;2.70;;;0.90;;
30000;SDS011;16845;48.670;9.000;2024-02-26T04:17:46;2.50;;;1.20;;
30000;SDS011;16845;48.670;9.000;2024-02-26T04:20:13;0.90;;;0.90;;
30000;SDS011;16845;48.670;9.000;2024-02-26T04:22:43;1.42;;;1.00;;
30000;SDS011;16845;48.670;9.000;2024-02-26T04:25:09;1.52;;;0.95;;
30000;SDS011;16845;48.670;9.000;2024-02-26T04:27:36;3.13;;;1.30;;
30000;SDS011;16845;48.670;9.000;2024-02-26T04:30:03;2.15;;;1.70;;
30000;SDS011;16845;48.670;9.000;2024-02-26T04:32:30;1.48;;;1.17;;
30000;SDS011;16845;48.670;9.000;2024-02-26T04:34:57;2.00;;;1.07;;
30000;SDS011;16845;48.670;9.000;2024-02-26T04:37:23;1.70;;;1.13;;
30000;SDS011;16845;48.670;9.000;2024-02-26T04:39:51;1.05;;;1.00;;
30000;SDS011;16845;48.670;9.000;2024-02-26T04:42:18;1.25;;;0.80;;
30000;SDS011;16845;48.670;9.000;2024-02-26T04:44:44;1.20;;;0.77;;
30000;SDS011;16845;48.670;9.000;2024-02-26T04:47:11;1.20;;;1.03;;
30000;SDS011;16845;48.670;9.000;2024-02-26T04:49:37;0.73;;;0.73;;
30000;SDS011;16845;48.670;9.000;2024-02-26T04:52:04;0.77;;;0.77;;
30000;SDS011;16845;48.670;9.000;2024-02-26T04:54:31;1.55;;;0.90;;
30000;SDS011;16845;48.670;9.000;2024-02-26T04:56:59;1.45;;;1.15;;
30000;SDS011;16845;48.670;9.000;2024-02-26T04:59:26;1.20;;;1.08;;
30000;SDS011;16845;48.670;9.000;2024-02-26T05:01:52;1.73;;;1.45;;
30000;SDS011;16845;48.670;9.000;2024-02-26T05:04:19;2.37;;;1.60;;
30000;SDS011;16845;48.670;9.000;2024-02-26T05:06:45;2.03;;;1.50;;
30000;SDS011;16845;48.670;9.000;2024-02-26T05:09:12;1.90;;;1.27;;
30000;SDS011;16845;48.670;9.000;2024-02-26T05:11:39;1.33;;;1.20;;
30000;SDS011;16845;48.670;9.000;2024-02-26T05:14:10;1.23;;;1.08;;
30000;SDS011;16845;48.670;9.000;2024-02-26T05:16:36;1.20;;;1.00;;
30000;SDS011;16845;48.670;9.000;2024-02-26T05:19:03;1.65;;;1.30;;
30000;SDS011;16845;48.670;9.000;2024-02-26T05:21:29;1.30;;;1.20;;
30000;SDS011;16845;48.670;9.000;2024-02-26T05:23:56;1.53;;;1.30;;
30000;SDS011;16845;48.670;9.000;2024-02-26T05:26:23;1.07;;;1.00;;
30000;SDS011;16845;48.670;9.000;2024-02-26T05:28:49;1.53;;;1.17;;
30000;SDS011;16845;48.670;9.000;2024-02-26T05:31:17;2.03;;;1.35;;
30000;SDS011;16845;48.670;9.000;2024-02-26T05:33:44;1.48;;;1.00;;
30000;SDS011;16845;48.670;9.000;2024-02-26T05:36:17;1.67;;;1.40;;
30000;SDS011;16845;48.670;9.000;2024-02-26T05:38:44;2.28;;;1.55;;
30000;SDS011;16845;48.670;9.000;2024-02-26T05:41:11;2.10;;;1.10;;
30000;SDS011;16845;48.670;9.000;2024-02-26T05:43:37;3.50;;;1.90;;
30000;SDS011;16845;48.670;9.000;2024-02-26T05:46:04;1.92;;;1.75;;
30000;SDS011;16845;48.670;9.000;2024-02-26T05:48:32;2.58;;;1.40;;
30000;SDS011;16845;48.670;9.000;2024-02-26T05:50:59;1.48;;;1.30;;
30000;SDS011;16845;48.670;9.000;2024-02-26T05:53:25;1.45;;;1.35;;
30000;SDS011;16845;48.670;9.000;2024-02-26T05:55:52;2.27;;;1.60;;
30000;SDS011;16845;48.670;9.000;2024-02-26T05:58:18;2.45;;;1.30;;
30000;SDS011;16845;48.670;9.000;2024-02-26T06:00:45;2.20;;;1.98;;
30000;SDS011;16845;48.670;9.000;2024-02-26T06:03:11;2.25;;;1.85;;
30000;SDS011;16845;48.670;9.000;2024-02-26T06:05:39;2.50;;;1.80;;
30000;SDS011;16845;48.670;9.000;2024-02-26T06:08:06;2.95;;;2.45;;
30000;SDS011;16845;48.670;9.000;2024-02-26T06:10:33;3.53;;;1.83;;
30000;SDS011;16845;48.670;9.000;2024-02-26T06:12:59;2.67;;;2.10;;
30000;SDS011;16845;48.670;9.000;2024-02-26T06:15:27;2.15;;;1.95;;
30000;SDS011;16845;48.670;9.000;2024-02-26T06:17:53;2.90;;;2.17;;
30000;SDS011;16845;48.670;9.000;2024-02-26T06:20:20;2.43;;;2.10;;
30000;SDS011;16845;48.670;9.000;2024-02-26T06:22:48;4.63;;;2.40;;
30000;SDS011;16845;48.670;9.000;2024-02-26T06:25:14;2.13;;;1.92;;
30000;SDS011;16845;48.670;9.000;2024-02-26T06:27:41;2.78;;;1.80;;
30000;SDS011;16845;48.670;9.000;2024-02-26T06:30:08;5.22;;;2.33;;
30000;SDS011;16845;48.670;9.000;2024-02-26T06:35:01;1.67;;;1.58;;
30000;SDS011;16845;48.670;9.000;2024-02-26T06:37:31;2.00;;;1.27;;
30000;SDS011;16845;48.670;9.000;2024-02-26T06:39:59;1.73;;;1.38;;
30000;SDS011;16845;48.670;9.000;2024-02-26T06:42:26;1.40;;;1.30;;
30000;SDS011;16845;48.670;9.000;2024-02-26T06:44:53;2.40;;;1.27;;
30000;SDS011;16845;48.670;9.000;2024-02-26T06:47:20;1.33;;;1.20;;
30000;SDS011;16845;48.670;9.000;2024-02-26T06:49:46;1.85;;;1.30;;
30000;SDS011;16845;48.670;9.000;2024-02-26T06:52:13;2.10;;;1.60;;
30000;SDS011;16845;48.670;9.000;2024-02-26T06:54:39;1.35;;;1.20;;
30000;SDS011;16845;48.670;9.000;2024-02-26T06:57:07;1.52;;;1.35;;
30000;SDS011;16845;48.670;9.000;2024-02-26T06:59:34;1.40;;;1.30;;
30000;SDS011;16845;48.670;9.000;2024-02-26T07:02:00;2.05;;;1.35;;
30000;SDS011;16845;48.670;9.000;2024-02-26T07:04:27;1.60;;;1.30;;
30000;SDS011;16845;48.670;9.000;2024-02-26T07:06:53;3.37;;;1.00;;
30000;SDS011;16845;48.670;9.000;2024-02-26T07:09:20;1.67;;;1.27;;
30000;SDS011;16845;48.670;9.000;2024-02-26T07:11:46;2.40;;;1.27;;
30000;SDS011;16845;48.670;9.000;2024-02-26T07:14:14;1.00;;;0.90;;
30000;SDS011;16845;48.670;9.000;2024-02-26T07:16:41;2.25;;;1.00;;
30000;SDS011;16845;48.670;9.000;2024-02-26T07:19:07;2.67;;;0.90;;
30000;SDS011;16845;48.670;9.000;2024-02-26T07:21:34;0.93;;;0.83;;
30000;SDS011;16845;48.670;9.000;2024-02-26T07:24:01;0.85;;;0.85;;
30000;SDS011;16845;48.670;9.000;2024-02-26T07:26:28;1.30;;;1.00;;
30000;SDS011;16845;48.670;9.000;2024-02-26T07:28:55;1.60;;;1.27;;
30000;SDS011;16845;48.670;9.000;2024-02-26T07:31:23;1.40;;;1.30;;
30000;SDS011;16845;48.670;9.000;2024-02-26T07:33:49;1.85;;;1.17;;
30000;SDS011;16845;48.670;9.000;2024-02-26T07:36:16;1.00;;;1.00;;
30000;SDS011;16845;48.670;9.000;2024-02-26T07:38:43;1.70;;;0.97;;
30000;SDS011;16845;48.670;9.000;2024-02-26T07:41:11;0.93;;;0.90;;
30000;SDS011;16845;48.670;9.000;2024-02-26T07:43:38;1.00;;;0.93;;
30000;SDS011;16845;48.670;9.000;2024-02-26T07:46:04;2.00;;;1.07;;
30000;SDS011;16845;48.670;9.000;2024-02-26T07:48:32;1.10;;;1.00;;
30000;SDS011;16845;48.670;9.000;2024-02-26T07:50:59;4.50;;;1.48;;
30000;SDS011;16845;48.670;9.000;2024-02-26T07:53:26;1.37;;;1.27;;
30000;SDS011;16845;48.670;9.000;2024-02-26T07:55:52;4.97;;;1.90;;
30000;SDS011;16845;48.670;9.000;2024-02-26T07:58:19;3.40;;;1.92;;
30000;SDS011;16845;48.670;9.000;2024-02-26T08:00:45;2.25;;;1.80;;
30000;SDS011;16845;48.670;9.000;2024-02-26T08:03:12;4.88;;;1.75;;
30000;SDS011;16845;48.670;9.000;2024-02-26T08:05:40;2.47;;;1.95;;
30000;SDS011;16845;48.670;9.000;2024-02-26T08:08:06;3.35;;;1.95;;
30000;SDS011;16845;48.670;9.000;2024-02-26T08:10:33;1.67;;;1.58;;
30000;SDS011;16845;48.670;9.000;2024-02-26T08:12:59;1.88;;;1.52;;
30000;SDS011;16845;48.670;9.000;2024-02-26T08:15:26;1.48;;;1.38;;
30000;SDS011;16845;48.670;9.000;2024-02-26T08:17:53;1.53;;;1.43;;
30000;SDS011;16845;48.670;9.000;2024-02-26T08:20:19;2.22;;;1.85;;
30000;SDS011;16845;48.670;9.000;2024-02-26T08:22:47;2.70;;;2.13;;
30000;SDS011;16845;48.670;9.000;2024-02-26T08:25:14;2.75;;;1.90;;
30000;SDS011;16845;48.670;9.000;2024-02-26T08:27:40;2.78;;;2.00;;
30000;SDS011;16845;48.670;9.000;2024-02-26T08:30:07;3.03;;;2.13;;
30000;SDS011;16845;48.670;9.000;2024-02-26T08:32:34;2.45;;;2.25;;
30000;SDS011;16845;48.670;9.000;2024-02-26T08:35:01;2.93;;;2.33;;
30000;SDS011;16845;48.670;9.000;2024-02-26T08:37:28;2.88;;;2.22;;
30000;SDS011;16845;48.670;9.000;2024-02-26T08:39:56;3.50;;;1.80;;
30000;SDS011;16845;48.670;9.000;2024-02-26T08:42:24;4.00;;;2.25;;
30000;SDS011;16845;48.670;9.000;2024-02-26T08:44:50;2.80;;;2.10;;
30000;SDS011;16845;48.670;9.000;2024-02-26T08:47:17;1.77;;;1.60;;
30000;SDS011;16845;48.670;9.000;2024-02-26T08:49:44;3.95;;;1.90;;
30000;SDS011;16845;48.670;9.000;2024-02-26T08:52:11;4.22;;;1.70;;
30000;SDS011;16845;48.670;9.000;2024-02-26T08:54:37;2.47;;;1.67;;
30000;SDS011;16845;48.670;9.000;2024-02-26T08:57:05;2.97;;;1.67;;
30000;SDS011;16845;48.670;9.000;2024-02-26T08:59:32;2.15;;;1.67;;
30000;SDS011;16845;48.670;9.000;2024-02-26T09:01:59;2.35;;;1.63;;
30000;SDS011;16845;48.670;9.000;2024-02-26T09:04:25;1.85;;;1.50;;
30000;SDS011;16845;48.670;9.000;2024-02-26T09:06:52;2.92;;;1.75;;
30000;SDS011;16845;48.670;9.000;2024-02-26T09:09:19;1.65;;;1.25;;
30000;SDS011;16845;48.670;9.000;2024-02-26T09:11:45;1.97;;;1.30;;
30000;SDS011;16845;48.670;9.000;2024-02-26T09:14:13;1.83;;;1.50;;
30000;SDS011;16845;48.670;9.000;2024-02-26T09:16:40;1.55;;;1.40;;
30000;SDS011;16845;48.670;9.000;2024-02-26T09:19:07;2.57;;;1.53;;
30000;SDS011;16845;48.670;9.000;2024-02-26T09:21:33;2.20;;;1.55;;
30000;SDS011;16845;48.670;9.000;2024-02-26T09:24:00;1.43;;;1.20;;
30000;SDS011;16845;48.670;9.000;2024-02-26T09:26:27;2.30;;;1.30;;
30000;SDS011;16845;48.670;9.000;2024-02-26T09:28:53;4.85;;;1.35;;
30000;SDS011;16845;48.670;9.000;2024-02-26T09:31:21;1.83;;;1.10;;
30000;SDS011;16845;48.670;9.000;2024-02-26T09:33:47;1.45;;;1.33;;
30000;SDS011;16845;48.670;9.000;2024-02-26T09:36:14;2.53;;;1.27;;
30000;SDS011;16845;48.670;9.000;2024-02-26T09:38:41;1.58;;;1.25;;
30000;SDS011;16845;48.670;9.000;2024-02-26T09:41:21;2.17;;;1.23;;
30000;SDS011;16845;48.670;9.000;2024-02-26T09:43:48;2.00;;;1.13;;
30000;SDS011;16845;48.670;9.000;2024-02-26T09:46:16;2.08;;;1.42;;
30000;SDS011;16845;48.670;9.000;2024-02-26T09:48:44;2.90;;;1.55;;
30000;SDS011;16845;48.670;9.000;2024-02-26T09:51:11;2.60;;;1.60;;
30000;SDS011;16845;48.670;9.000;2024-02-26T09:53:38;2.30;;;1.40;;
30000;SDS011;16845;48.670;9.000;2024-02-26T09:56:08;2.60;;;1.60;;
30000;SDS011;16845;48.670;9.000;2024-02-26T09:58:37;8.75;;;1.90;;
30000;SDS011;16845;48.670;9.000;2024-02-26T10:01:06;2.40;;;1.50;;
30000;SDS011;16845;48.670;9.000;2024-02-26T10:03:38;1.30;;;1.20;;
30000;SDS011;16845;48.670;9.000;2024-02-26T10:06:08;2.22;;;1.23;;
30000;SDS011;16845;48.670;9.000;2024-02-26T10:08:35;2.40;;;1.20;;
30000;SDS011;16845;48.670;9.000;2024-02-26T10:11:02;0.98;;;0.90;;
30000;SDS011;16845;48.670;9.000;2024-02-26T10:13:28;3.00;;;1.30;;
30000;SDS011;16845;48.670;9.000;2024-02-26T10:15:55;3.70;;;1.13;;
30000;SDS011;16845;48.670;9.000;2024-02-26T10:18:22;4.97;;;1.42;;
30000;SDS011;16845;48.670;9.000;2024-02-26T10:23:26;6.80;;;2.28;;
30000;SDS011;16845;48.670;9.000;2024-02-26T10:25:53;4.25;;;1.83;;
30000;SDS011;16845;48.670;9.000;2024-02-26T10:28:20;4.55;;;1.85;;
30000;SDS011;16845;48.670;9.000;2024-02-26T10:30:46;2.15;;;0.98;;
30000;SDS011;16845;48.670;9.000;2024-02-26T10:33:13;3.15;;;1.00;;
30000;SDS011;16845;48.670;9.000;2024-02-26T10:35:45;3.35;;;1.50;;
30000;SDS011;16845;48.670;9.000;2024-02-26T10:38:12;1.35;;;1.15;;
30000;SDS011;16845;48.670;9.000;2024-02-26T10:40:40;1.33;;;1.10;;
30000;SDS011;16845;48.670;9.000;2024-02-26T10:43:06;1.40;;;1.20;;
30000;SDS011;16845;48.670;9.000;2024-02-26T10:45:33;1.15;;;0.80;;
30000;SDS011;16845;48.670;9.000;2024-02-26T10:48:03;2.67;;;1.05;;
30000;SDS011;16845;48.670;9.000;2024-02-26T10:50:30;2.80;;;0.98;;
30000;SDS011;16845;48.670;9.000;2024-02-26T10:53:01;1.30;;;1.02;;
30000;SDS011;16845;48.670;9.000;2024-02-26T10:55:27;2.97;;;1.02;;
30000;SDS011;16845;48.670;9.000;2024-02-26T10:57:56;1.05;;;0.95;;
30000;SDS011;16845;48.670;9.000;2024-02-26T11:00:23;1.00;;;0.90;;
30000;SDS011;16845;48.670;9.000;2024-02-26T11:02:50;1.40;;;1.00;;
30000;SDS011;16845;48.670;9.000;2024-02-26T11:05:17;6.25;;;1.02;;
30000;SDS011;16845;48.670;9.000;2024-02-26T11:07:45;1.52;;;0.90;;
30000;SDS011;16845;48.670;9.000;2024-02-26T11:10:12;1.73;;;1.00;;
30000;SDS011;16845;48.670;9.000;2024-02-26T11:12:39;1.83;;;1.15;;
30000;SDS011;16845;48.670;9.000;2024-02-26T11:15:08;1.50;;;1.30;;
30000;SDS011;16845;48.670;9.000;2024-02-26T11:17:35;3.08;;;1.20;;
30000;SDS011;16845;48.670;9.000;2024-02-26T11:20:04;1.80;;;1.35;;
30000;SDS011;16845;48.670;9.000;2024-02-26T11:22:35;1.83;;;0.90;;
30000;SDS011;16845;48.670;9.000;2024-02-26T11:25:02;2.00;;;1.20;;
30000;SDS011;16845;48.670;9.000;2024-02-26T11:27:30;4.57;;;0.95;;
30000;SDS011;16845;48.670;9.000;2024-02-26T11:30:02;1.73;;;1.25;;
30000;SDS011;16845;48.670;9.000;2024-02-26T11:32:31;1.73;;;0.95;;
30000;SDS011;16845;48.670;9.000;2024-02-26T11:34:58;1.38;;;1.23;;
30000;SDS011;16845;48.670;9.000;2024-02-26T11:37:25;1.85;;;1.10;;
30000;SDS011;16845;48.670;9.000;2024-02-26T11:39:52;4.47;;;1.40;;
30000;SDS011;16845;48.670;9.000;2024-02-26T11:42:22;2.78;;;1.20;;
30000;SDS011;16845;48.670;9.000;2024-02-26T11:44:50;3.90;;;1.60;;
30000;SDS011;16845;48.670;9.000;2024-02-26T11:47:17;1.57;;;1.27;;
30000;SDS011;16845;48.670;9.000;2024-02-26T11:49:46;5.38;;;1.02;;
30000;SDS011;16845;48.670;9.000;2024-02-26T11:52:14;2.05;;;1.00;;
30000;SDS011;16845;48.670;9.000;2024-02-26T11:54:45;2.58;;;1.40;;
30000;SDS011;16845;48.670;9.000;2024-02-26T11:57:20;2.85;;;1.17;;
30000;SDS011;16845;48.670;9.000;2024-02-26T11:59:47;2.90;;;1.30;;
30000;SDS011;16845;48.670;9.000;2024-02-26T12:05:07;1.38;;;1.08;;
30000;SDS011;16845;48.670;9.000;2024-02-26T12:07:36;1.65;;;1.10;;
30000;SDS011;16845;48.670;9.000;2024-02-26T12:10:13;6.15;;;0.95;;
30000;SDS011;16845;48.670;9.000;2024-02-26T12:12:41;1.77;;;1.17;;
30000;SDS011;16845;48.670;9.000;2024-02-26T12:15:08;1.45;;;1.13;;
30000;SDS011;16845;48.670;9.000;2024-02-26T12:17:35;1.92;;;1.00;;
30000;SDS011;16845;48.670;9.000;2024-02-26T12:20:09;1.77;;;1.33;;
30000;SDS011;16845;48.670;9.000;2024-02-26T12:22:37;1.98;;;1.00;;
30000;SDS011;16845;48.670;9.000;2024-02-26T12:25:06;2.95;;;1.20;;
30000;SDS011;16845;48.670;9.000;2024-02-26T12:27:34;2.47;;;0.98;;
30000;SDS011;16845;48.670;9.000;2024-02-26T12:30:01;1.47;;;1.23;;
30000;SDS011;16845;48.670;9.000;2024-02-26T12:32:28;1.77;;;1.10;;
30000;SDS011;16845;48.670;9.000;2024-02-26T12:34:54;2.22;;;1.15;;
30000;SDS011;16845;48.670;9.000;2024-02-26T12:37:23;2.28;;;1.27;;
30000;SDS011;16845;48.670;9.000;2024-02-26T12:39:50;1.63;;;1.00;;
30000;SDS011;16845;48.670;9.000;2024-02-26T12:42:16;2.83;;;0.97;;
30000;SDS011;16845;48.670;9.000;2024-02-26T12:44:44;3.22;;;0.80;;
30000;SDS011;16845;48.670;9.000;2024-02-26T12:49:37;5.20;;;0.73;;
30000;SDS011;16845;48.670;9.000;2024-02-26T12:52:04;3.70;;;1.00;;
30000;SDS011;16845;48.670;9.000;2024-02-26T12:54:33;0.85;;;0.55;;
30000;SDS011;16845;48.670;9.000;2024-02-26T12:57:00;1.35;;;0.70;;
30000;SDS011;16845;48.670;9.000;2024-02-26T12:59:28;2.83;;;0.70;;
30000;SDS011;16845;48.670;9.000;2024-02-26T13:01:55;0.82;;;0.60;;
30000;SDS011;16845;48.670;9.000;2024-02-26T13:04:23;2.37;;;0.60;;
30000;SDS011;16845;48.670;9.000;2024-02-26T13:06:50;0.93;;;0.40;;
30000;SDS011;16845;48.670;9.000;2024-02-26T13:09:17;0.38;;;0.30;;
30000;SDS011;16845;48.670;9.000;2024-02-26T13:11:45;2.05;;;0.30;;
30000;SDS011;16845;48.670;9.000;2024-02-26T13:14:18;0.30;;;0.30;;
30000;SDS011;16845;48.670;9.000;2024-02-26T13:16:45;0.50;;;0.50;;
30000;SDS011;16845;48.670;9.000;2024-02-26T13:19:20;1.70;;;0.65;;
30000;SDS011;16845;48.670;9.000;2024-02-26T13:21:47;0.50;;;0.40;;
30000;SDS011;16845;48.670;9.000;2024-02-26T13:24:14;0.40;;;0.33;;
30000;SDS011;16845;48.670;9.000;2024-02-26T13:26:40;2.20;;;0.73;;
30000;SDS011;16845;48.670;9.000;2024-02-26T13:29:08;0.60;;;0.50;;
30000;SDS011;16845;48.670;9.000;2024-02-26T13:31:38;0.77;;;0.77;;
30000;SDS011;16845;48.670;9.000;2024-02-26T13:34:09;0.90;;;0.60;;
30000;SDS011;16845;48.670;9.000;2024-02-26T13:36:36;1.05;;;0.60;;
30000;SDS011;16845;48.670;9.000;2024-02-26T13:39:03;0.80;;;0.60;;
30000;SDS011;16845;48.670;9.000;2024-02-26T13:41:29;0.70;;;0.70;;
30000;SDS011;16845;48.670;9.000;2024-02-26T13:43:56;1.00;;;0.63;;
30000;SDS011;16845;48.670;9.000;2024-02-26T13:46:24;0.98;;;0.80;;
30000;SDS011;16845;48.670;9.000;2024-02-26T13:48:53;0.68;;;0.60;;
30000;SDS011;16845;48.670;9.000;2024-02-26T13:51:19;1.05;;;0.63;;
30000;SDS011;16845;48.670;9.000;2024-02-26T13:53:46;0.60;;;0.60;;
30000;SDS011;16845;48.670;9.000;2024-02-26T13:56:12;1.03;;;0.70;;
30000;SDS011;16845;48.670;9.000;2024-02-26T13:58:39;0.93;;;0.57;;
30000;SDS011;16845;48.670;9.000;2024-02-26T14:01:05;2.90;;;0.70;;
30000;SDS011;16845;48.670;9.000;2024-02-26T14:03:33;0.57;;;0.57;;
30000;SDS011;16845;48.670;9.000;2024-02-26T14:06:00;2.45;;;0.60;;
30000;SDS011;16845;48.670;9.000;2024-02-26T14:08:27;1.17;;;0.82;;
30000;SDS011;16845;48.670;9.000;2024-02-26T14:10:53;0.60;;;0.50;;
30000;SDS011;16845;48.670;9.000;2024-02-26T14:13:20;1.55;;;0.57;;
30000;SDS011;16845;48.670;9.000;2024-02-26T14:15:46;2.90;;;0.70;;
30000;SDS011;16845;48.670;9.000;2024-02-26T14:18:13;0.43;;;0.40;;
30000;SDS011;16845;48.670;9.000;2024-02-26T14:20:41;0.57;;;0.53;;
30000;SDS011;16845;48.670;9.000;2024-02-26T14:23:07;0.60;;;0.50;;
30000;SDS011;16845;48.670;9.000;2024-02-26T14:25:34;0.97;;;0.43;;
30000;SDS011;16845;48.670;9.000;2024-02-26T14:28:01;1.20;;;0.52;;
30000;SDS011;16845;48.670;9.000;2024-02-26T14:30:27;2.72;;;0.85;;
30000;SDS011;16845;48.670;9.000;2024-02-26T14:32:54;2.60;;;0.67;;
30000;SDS011;16845;48.670;9.000;2024-02-26T14:35:21;5.97;;;0.45;;
30000;SDS011;16845;48.670;9.000;2024-02-26T14:37:49;3.60;;;0.70;;
30000;SDS011;16845;48.670;9.000;2024-02-26T14:40:15;0.40;;;0.40;;
30000;SDS011;16845;48.670;9.000;2024-02-26T14:42:42;1.05;;;0.40;;
30000;SDS011;16845;48.670;9.000;2024-02-26T14:45:09;0.40;;;0.40;;
30000;SDS011;16845;48.670;9.000;2024-02-26T14:47:36;0.50;;;0.50;;
30000;SDS011;16845;48.670;9.000;2024-02-26T14:50:03;1.30;;;0.60;;
30000;SDS011;16845;48.670;9.000;2024-02-26T14:54:58;2.45;;;0.45;;
30000;SDS011;16845;48.670;9.000;2024-02-26T14:57:25;0.98;;;0.57;;
30000;SDS011;16845;48.670;9.000;2024-02-26T14:59:52;1.23;;;0.73;;
30000;SDS011;16845;48.670;9.000;2024-02-26T15:02:18;1.83;;;0.73;;